Time;durP1;ratioP1;P1;durP2;ratioP2;P2;SDS_P1;SDS_P2;PMS_P1;PMS_P2;Temp;Humidity;BMP_temperature;BMP_pressure;BME280_temperature;BME280_humidity;BME280_pressure;Samples;Min_cycle;Max_cycle;Signal;HPM_P1;HPM_P2
2021/05/20 00:01:54;;;;;;;1.10;1.10;;;;;;;;;;5061076;28;20519;-49
2021/05/20 00:04:22;;;;;;;1.15;1.15;;;;;;;;;;5059187;28;20037;-52
2021/05/20 00:06:49;;;;;;;1.10;1.10;;;;;;;;;;5068979;28;20372;-51
2021/05/20 00:09:16;;;;;;;1.20;1.20;;;;;;;;;;5064255;28;20028;-50
2021/05/20 00:11:42;;;;;;;1.00;1.00;;;;;;;;;;5059584;28;20136;-48
2021/05/20 00:14:09;;;;;;;1.10;1.10;;;;;;;;;;5062646;28;20123;-49
2021/05/20 00:16:36;;;;;;;6.03;2.13;;;;;;;;;;5061871;28;20052;-52
2021/05/20 00:19:03;;;;;;;1.02;1.02;;;;;;;;;;5065936;28;20041;-51
2021/05/20 00:21:29;;;;;;;1.40;1.00;;;;;;;;;;5064894;28;20040;-51
2021/05/20 00:23:56;;;;;;;1.00;1.00;;;;;;;;;;5063480;28;20485;-50
2021/05/20 00:26:24;;;;;;;1.05;1.05;;;;;;;;;;5065695;28;20037;-51
2021/05/20 00:28:50;;;;;;;1.00;1.00;;;;;;;;;;5054492;28;20045;-51
2021/05/20 00:31:17;;;;;;;1.05;1.05;;;;;;;;;;5057161;28;20075;-49
2021/05/20 00:33:44;;;;;;;0.98;0.98;;;;;;;;;;5060257;28;20043;-51
2021/05/20 00:36:11;;;;;;;1.75;1.17;;;;;;;;;;5065528;28;20048;-49
2021/05/20 00:38:40;;;;;;;1.40;1.20;;;;;;;;;;5067067;28;20045;-49
2021/05/20 00:41:08;;;;;;;1.33;1.30;;;;;;;;;;5063149;28;20431;-51
2021/05/20 00:43:35;;;;;;;4.25;1.33;;;;;;;;;;5066217;28;20048;-52
2021/05/20 00:46:02;;;;;;;1.20;1.20;;;;;;;;;;5064024;28;20036;-48
2021/05/20 00:48:29;;;;;;;4.68;1.58;;;;;;;;;;5050370;28;20527;-49
2021/05/20 00:50:55;;;;;;;1.35;1.35;;;;;;;;;;5067238;28;20575;-52
2021/05/20 00:53:22;;;;;;;1.20;1.20;;;;;;;;;;5064743;28;20039;-52
2021/05/20 00:55:49;;;;;;;1.50;1.40;;;;;;;;;;5066911;28;20045;-48
2021/05/20 00:58:17;;;;;;;2.13;2.13;;;;;;;;;;5064376;28;20366;-50
2021/05/20 01:00:44;;;;;;;2.58;1.70;;;;;;;;;;5054213;28;20037;-52
2021/05/20 01:03:10;;;;;;;1.73;1.73;;;;;;;;;;5069239;28;20503;-51
2021/05/20 01:05:37;;;;;;;2.08;1.83;;;;;;;;;;5066109;28;20060;-50
2021/05/20 01:08:04;;;;;;;2.78;2.13;;;;;;;;;;5059757;28;20055;-52
2021/05/20 01:10:31;;;;;;;3.58;3.47;;;;;;;;;;5068887;28;20427;-50
2021/05/20 01:12:57;;;;;;;3.47;3.38;;;;;;;;;;5058069;28;20103;-49
2021/05/20 01:15:24;;;;;;;4.18;3.92;;;;;;;;;;5070554;28;20044;-50
2021/05/20 01:17:58;;;;;;;2.80;2.60;;;;;;;;;;5062198;28;20044;-51
2021/05/20 01:20:27;;;;;;;2.80;1.73;;;;;;;;;;5067514;28;20039;-49
2021/05/20 01:23:13;;;;;;;2.67;2.47;;;;;;;;;;5065043;28;20052;-50
2021/05/20 01:25:41;;;;;;;1.67;1.67;;;;;;;;;;5059437;28;20043;-49
2021/05/20 01:28:12;;;;;;;2.22;2.15;;;;;;;;;;5064062;28;20037;-50
2021/05/20 01:30:39;;;;;;;4.45;2.28;;;;;;;;;;5064867;28;20032;-47
2021/05/20 01:33:07;;;;;;;1.85;1.75;;;;;;;;;;5069450;28;20037;-50
2021/05/20 01:35:34;;;;;;;1.65;1.65;;;;;;;;;;5070911;28;20493;-51
2021/05/20 01:41:01;;;;;;;1.73;1.58;;;;;;;;;;5060097;28;20136;-50
2021/05/20 01:43:28;;;;;;;2.45;1.67;;;;;;;;;;5069664;28;21128;-51
2021/05/20 01:45:59;;;;;;;1.90;1.90;;;;;;;;;;5061093;28;20071;-52
2021/05/20 01:48:26;;;;;;;2.53;2.42;;;;;;;;;;5057097;28;20083;-51
2021/05/20 01:50:59;;;;;;;2.67;2.60;;;;;;;;;;5065595;28;20041;-52
2021/05/20 01:53:26;;;;;;;1.50;1.50;;;;;;;;;;5068711;28;20044;-52
2021/05/20 01:55:52;;;;;;;1.85;1.85;;;;;;;;;;5070907;28;20044;-47
2021/05/20 01:58:19;;;;;;;1.60;1.60;;;;;;;;;;5064155;28;20029;-49
2021/05/20 02:00:46;;;;;;;1.70;1.70;;;;;;;;;;5056043;28;20490;-51
2021/05/20 02:03:13;;;;;;;2.08;2.08;;;;;;;;;;5064089;28;20484;-49
2021/05/20 02:05:39;;;;;;;2.33;2.22;;;;;;;;;;5056132;28;20061;-52
2021/05/20 02:08:06;;;;;;;2.10;2.10;;;;;;;;;;5071235;28;20045;-51
2021/05/20 02:10:33;;;;;;;1.95;1.85;;;;;;;;;;5066120;28;20036;-52
2021/05/20 02:12:59;;;;;;;1.60;1.60;;;;;;;;;;5061212;28;20041;-48
2021/05/20 02:15:26;;;;;;;1.45;1.45;;;;;;;;;;5067824;28;20086;-51
2021/05/20 02:17:53;;;;;;;1.58;1.58;;;;;;;;;;5062159;28;20094;-50
2021/05/20 02:20:20;;;;;;;1.98;1.98;;;;;;;;;;5068988;28;20040;-51
2021/05/20 02:22:48;;;;;;;1.90;1.80;;;;;;;;;;5064062;28;20037;-51
2021/05/20 02:25:15;;;;;;;2.20;2.20;;;;;;;;;;5065431;28;20672;-51
2021/05/20 02:27:42;;;;;;;2.22;2.22;;;;;;;;;;5070298;28;20024;-51
2021/05/20 02:30:15;;;;;;;2.67;2.67;;;;;;;;;;5061161;28;20064;-48
2021/05/20 02:32:43;;;;;;;3.70;3.47;;;;;;;;;;5070700;28;20041;-52
2021/05/20 02:35:10;;;;;;;3.50;3.35;;;;;;;;;;5066353;28;20060;-50
2021/05/20 02:37:37;;;;;;;2.72;2.63;;;;;;;;;;5068401;28;20044;-51
2021/05/20 02:40:04;;;;;;;3.63;3.42;;;;;;;;;;5066545;28;20401;-51
2021/05/20 02:42:31;;;;;;;6.47;6.38;;;;;;;;;;5067138;28;20094;-52
2021/05/20 02:44:58;;;;;;;3.45;3.35;;;;;;;;;;5058716;28;20386;-51
2021/05/20 02:47:25;;;;;;;2.25;2.25;;;;;;;;;;5059500;28;20040;-48
2021/05/20 02:49:51;;;;;;;2.55;2.55;;;;;;;;;;5052781;28;20616;-48
2021/05/20 02:52:18;;;;;;;3.08;3.08;;;;;;;;;;5070641;28;20048;-50
2021/05/20 02:54:46;;;;;;;3.33;3.22;;;;;;;;;;5067828;28;20040;-47
2021/05/20 02:57:12;;;;;;;2.28;1.80;;;;;;;;;;5063766;28;20374;-47
2021/05/20 02:59:39;;;;;;;2.20;2.20;;;;;;;;;;5065901;28;20039;-47
2021/05/20 03:02:07;;;;;;;4.75;2.47;;;;;;;;;;5067513;28;20095;-50
2021/05/20 03:04:34;;;;;;;4.25;4.13;;;;;;;;;;5062689;28;20049;-48
2021/05/20 03:07:02;;;;;;;6.53;6.47;;;;;;;;;;5059889;28;20060;-46
2021/05/20 03:09:29;;;;;;;5.95;5.75;;;;;;;;;;5067491;28;20032;-47
2021/05/20 03:11:57;;;;;;;8.40;8.20;;;;;;;;;;5061392;28;20568;-49
2021/05/20 03:14:24;;;;;;;11.18;10.52;;;;;;;;;;5064186;28;20120;-46
2021/05/20 03:16:52;;;;;;;9.52;9.32;;;;;;;;;;5059372;28;20067;-47
2021/05/20 03:19:19;;;;;;;12.95;12.20;;;;;;;;;;5064466;28;20045;-47
2021/05/20 03:21:46;;;;;;;11.45;11.27;;;;;;;;;;5062372;28;20037;-47
2021/05/20 03:24:13;;;;;;;11.18;10.27;;;;;;;;;;5062361;28;20045;-49
2021/05/20 03:26:40;;;;;;;10.18;10.07;;;;;;;;;;5057866;28;20036;-46
2021/05/20 03:29:07;;;;;;;12.02;11.93;;;;;;;;;;5064356;28;20037;-49
2021/05/20 03:31:33;;;;;;;13.20;13.10;;;;;;;;;;5066367;28;20384;-47
2021/05/20 03:34:00;;;;;;;15.38;14.40;;;;;;;;;;5067564;28;20083;-46
2021/05/20 03:36:27;;;;;;;13.68;13.05;;;;;;;;;;5059669;28;20119;-46
2021/05/20 03:38:54;;;;;;;47.42;15.63;;;;;;;;;;5058568;28;20052;-46
2021/05/20 03:41:20;;;;;;;13.95;13.65;;;;;;;;;;5069562;28;20388;-47
2021/05/20 03:43:47;;;;;;;41.97;11.82;;;;;;;;;;5066120;28;20711;-45
2021/05/20 03:46:27;;;;;;;98.32;16.77;;;;;;;;;;5052475;28;20495;-49
2021/05/20 03:48:54;;;;;;;106.60;17.52;;;;;;;;;;5057979;28;20080;-47
2021/05/20 03:51:21;;;;;;;102.50;16.35;;;;;;;;;;5059825;28;20052;-48
2021/05/20 03:53:48;;;;;;;107.38;17.85;;;;;;;;;;5052738;28;20044;-47
2021/05/20 03:56:15;;;;;;;45.00;16.17;;;;;;;;;;5062737;28;20048;-48
2021/05/20 03:58:41;;;;;;;56.85;16.85;;;;;;;;;;5053801;28;20044;-48
2021/05/20 04:01:08;;;;;;;27.10;16.45;;;;;;;;;;5069373;28;20048;-49
2021/05/20 04:03:35;;;;;;;16.42;15.85;;;;;;;;;;5067895;28;20048;-48
2021/05/20 04:06:03;;;;;;;44.28;16.10;;;;;;;;;;5066603;28;20384;-47
2021/05/20 04:08:30;;;;;;;17.60;16.95;;;;;;;;;;5061679;28;20424;-47
2021/05/20 04:10:56;;;;;;;13.73;13.55;;;;;;;;;;5054572;28;20047;-51
2021/05/20 04:13:34;;;;;;;77.45;17.65;;;;;;;;;;5065484;28;20040;-48
2021/05/20 04:16:01;;;;;;;16.25;15.07;;;;;;;;;;5062038;28;20032;-48
2021/05/20 04:18:28;;;;;;;17.23;17.02;;;;;;;;;;5052861;28;20044;-48
2021/05/20 04:20:55;;;;;;;54.78;16.65;;;;;;;;;;5066017;28;20553;-49
2021/05/20 04:23:22;;;;;;;15.27;14.55;;;;;;;;;;5062999;28;20462;-49
2021/05/20 04:25:49;;;;;;;77.47;19.10;;;;;;;;;;5053879;28;20045;-50
2021/05/20 04:28:16;;;;;;;16.65;16.55;;;;;;;;;;5068002;28;20082;-50
2021/05/20 04:30:44;;;;;;;22.13;6.15;;;;;;;;;;5062113;28;21434;-51
2021/05/20 04:33:10;;;;;;;110.47;13.05;;;;;;;;;;5063016;28;20053;-51
2021/05/20 04:35:37;;;;;;;10.95;9.77;;;;;;;;;;5061807;28;20063;-49
2021/05/20 04:38:05;;;;;;;91.25;18.75;;;;;;;;;;5056424;28;20037;-52
2021/05/20 04:40:32;;;;;;;17.33;16.67;;;;;;;;;;5062390;28;20045;-51
2021/05/20 04:42:59;;;;;;;185.73;16.85;;;;;;;;;;5057577;28;20122;-48
2021/05/20 04:45:26;;;;;;;44.38;16.38;;;;;;;;;;5064165;28;20052;-49
2021/05/20 04:47:54;;;;;;;60.22;19.98;;;;;;;;;;5069482;28;20346;-52
2021/05/20 04:50:20;;;;;;;17.60;16.17;;;;;;;;;;5072920;28;20519;-48
2021/05/20 04:52:47;;;;;;;17.65;17.17;;;;;;;;;;5066136;28;20041;-49
2021/05/20 04:55:15;;;;;;;16.63;16.33;;;;;;;;;;5057465;28;20056;-49
2021/05/20 04:57:42;;;;;;;17.35;16.95;;;;;;;;;;5073419;28;20607;-48
2021/05/20 05:00:10;;;;;;;14.88;14.77;;;;;;;;;;5064237;28;20044;-50
2021/05/20 05:02:37;;;;;;;15.63;14.80;;;;;;;;;;5059029;28;20106;-48
2021/05/20 05:05:05;;;;;;;6.85;6.57;;;;;;;;;;5070412;28;20049;-48
2021/05/20 05:07:32;;;;;;;13.90;13.60;;;;;;;;;;5067685;28;20123;-50
2021/05/20 05:10:00;;;;;;;15.45;14.93;;;;;;;;;;5073182;28;20464;-49
2021/05/20 05:12:27;;;;;;;5.78;5.78;;;;;;;;;;5066790;28;20056;-52
2021/05/20 05:14:55;;;;;;;2.67;2.63;;;;;;;;;;5054365;28;20048;-49
2021/05/20 05:17:22;;;;;;;2.28;2.08;;;;;;;;;;5071593;28;20040;-51
2021/05/20 05:19:50;;;;;;;2.25;2.15;;;;;;;;;;5069212;28;20030;-46
2021/05/20 05:22:17;;;;;;;1.58;1.58;;;;;;;;;;5071173;28;20040;-44
2021/05/20 05:24:47;;;;;;;1.83;1.83;;;;;;;;;;5068708;28;20723;-49
2021/05/20 05:27:15;;;;;;;2.30;2.05;;;;;;;;;;5056141;28;20095;-47
2021/05/20 05:29:43;;;;;;;2.25;1.70;;;;;;;;;;5071045;28;20538;-47
2021/05/20 05:32:10;;;;;;;1.75;1.75;;;;;;;;;;5060458;28;20127;-47
2021/05/20 05:34:37;;;;;;;2.95;2.80;;;;;;;;;;5058091;28;20136;-46
2021/05/20 05:37:04;;;;;;;2.08;1.98;;;;;;;;;;5064120;28;20106;-48
2021/05/20 05:39:31;;;;;;;1.30;1.30;;;;;;;;;;5057172;28;20095;-47
2021/05/20 05:41:57;;;;;;;3.42;1.45;;;;;;;;;;5060434;28;20095;-47
2021/05/20 05:44:24;;;;;;;5.38;1.13;;;;;;;;;;5064377;28;20055;-46
2021/05/20 05:46:51;;;;;;;1.30;1.30;;;;;;;;;;5061216;28;20045;-47
2021/05/20 05:49:21;;;;;;;1.63;1.52;;;;;;;;;;5064456;28;20041;-46
2021/05/20 05:51:52;;;;;;;1.20;1.20;;;;;;;;;;5057363;28;20063;-47
2021/05/20 05:54:19;;;;;;;1.60;1.60;;;;;;;;;;5057420;28;20041;-50
2021/05/20 05:56:46;;;;;;;1.50;1.50;;;;;;;;;;5065779;28;20072;-46
2021/05/20 05:59:14;;;;;;;1.30;1.30;;;;;;;;;;5066297;28;20408;-47
2021/05/20 06:01:41;;;;;;;2.00;1.75;;;;;;;;;;5068861;28;20044;-45
2021/05/20 06:04:08;;;;;;;1.73;1.65;;;;;;;;;;5068316;28;20082;-45
2021/05/20 06:06:41;;;;;;;1.40;1.40;;;;;;;;;;5057051;28;20063;-45
2021/05/20 06:09:08;;;;;;;1.50;1.50;;;;;;;;;;5066386;28;20055;-49
2021/05/20 06:11:35;;;;;;;1.45;1.45;;;;;;;;;;5053558;28;20041;-46
2021/05/20 06:14:04;;;;;;;1.25;1.25;;;;;;;;;;5071038;28;20098;-46
2021/05/20 06:16:35;;;;;;;1.20;1.20;;;;;;;;;;5063018;28;20041;-48
2021/05/20 06:19:03;;;;;;;1.20;1.20;;;;;;;;;;5065406;28;20049;-47
2021/05/20 06:21:29;;;;;;;1.30;1.20;;;;;;;;;;5069034;28;20033;-46
2021/05/20 06:23:57;;;;;;;1.10;1.10;;;;;;;;;;5068252;28;20051;-47
2021/05/20 06:26:24;;;;;;;1.20;1.10;;;;;;;;;;5059357;28;20041;-48
2021/05/20 06:28:51;;;;;;;1.42;1.10;;;;;;;;;;5063707;28;20401;-46
2021/05/20 06:31:18;;;;;;;1.10;1.10;;;;;;;;;;5060643;28;20338;-48
2021/05/20 06:33:45;;;;;;;1.10;1.10;;;;;;;;;;5069690;28;20029;-45
2021/05/20 06:36:12;;;;;;;1.00;1.00;;;;;;;;;;5069172;28;20039;-46
2021/05/20 06:38:39;;;;;;;1.02;1.02;;;;;;;;;;5056017;28;20492;-45
2021/05/20 06:41:09;;;;;;;1.00;1.00;;;;;;;;;;5063713;28;20491;-49
2021/05/20 06:43:39;;;;;;;0.90;0.90;;;;;;;;;;5067999;28;20041;-46
2021/05/20 06:46:06;;;;;;;1.00;1.00;;;;;;;;;;5060952;28;20045;-46
2021/05/20 06:48:34;;;;;;;1.20;0.90;;;;;;;;;;5066850;28;20468;-47
2021/05/20 06:51:01;;;;;;;0.90;0.90;;;;;;;;;;5055491;28;20037;-46
2021/05/20 06:53:30;;;;;;;0.80;0.80;;;;;;;;;;5064205;28;20115;-46
2021/05/20 06:56:00;;;;;;;0.90;0.90;;;;;;;;;;5067185;28;20037;-48
2021/05/20 07:01:26;;;;;;;3.60;0.90;;;;;;;;;;5051596;28;20064;-45
2021/05/20 07:03:53;;;;;;;0.90;0.90;;;;;;;;;;5059743;28;20075;-49
2021/05/20 07:06:20;;;;;;;0.77;0.77;;;;;;;;;;5061596;28;20053;-46
2021/05/20 07:08:46;;;;;;;0.82;0.82;;;;;;;;;;5057378;28;20033;-46
2021/05/20 07:11:13;;;;;;;0.70;0.70;;;;;;;;;;5070327;28;20060;-46
2021/05/20 07:13:40;;;;;;;0.80;0.80;;;;;;;;;;5068555;28;20353;-46
2021/05/20 07:16:07;;;;;;;0.70;0.70;;;;;;;;;;5063584;28;20207;-46
2021/05/20 07:18:34;;;;;;;0.70;0.70;;;;;;;;;;5063424;28;20028;-46
2021/05/20 07:21:00;;;;;;;4.15;1.00;;;;;;;;;;5069497;28;20048;-48
2021/05/20 07:23:27;;;;;;;0.93;0.93;;;;;;;;;;5070178;28;20544;-47
2021/05/20 07:25:54;;;;;;;0.80;0.80;;;;;;;;;;5067148;28;20044;-48
2021/05/20 07:28:22;;;;;;;0.70;0.70;;;;;;;;;;5069678;28;20161;-47
2021/05/20 07:30:49;;;;;;;1.10;1.10;;;;;;;;;;5058437;28;20055;-46
2021/05/20 07:33:16;;;;;;;1.23;0.70;;;;;;;;;;5067315;28;20381;-46
2021/05/20 07:35:43;;;;;;;1.40;0.70;;;;;;;;;;5057622;28;20048;-48
2021/05/20 07:38:09;;;;;;;0.70;0.70;;;;;;;;;;5061590;28;20065;-46
2021/05/20 07:40:36;;;;;;;0.70;0.70;;;;;;;;;;5057097;28;20044;-46
2021/05/20 07:43:03;;;;;;;0.70;0.70;;;;;;;;;;5067587;28;20101;-46
2021/05/20 07:45:29;;;;;;;0.70;0.70;;;;;;;;;;5066570;28;20127;-45
2021/05/20 07:47:56;;;;;;;0.70;0.70;;;;;;;;;;5062385;28;20065;-48
2021/05/20 07:50:23;;;;;;;1.02;0.70;;;;;;;;;;5059799;28;20044;-49
2021/05/20 07:52:50;;;;;;;0.80;0.80;;;;;;;;;;5055317;28;20143;-49
2021/05/20 07:55:17;;;;;;;0.70;0.70;;;;;;;;;;5069790;28;20036;-46
2021/05/20 07:57:44;;;;;;;0.65;0.65;;;;;;;;;;5067463;28;20082;-50
2021/05/20 08:00:12;;;;;;;0.68;0.68;;;;;;;;;;5068361;28;20401;-47
2021/05/20 08:02:54;;;;;;;1.27;0.70;;;;;;;;;;5067615;28;20039;-46
2021/05/20 08:05:39;;;;;;;1.63;1.60;;;;;;;;;;5058044;28;20041;-47
2021/05/20 08:13:06;;;;;;;;;;;;;;;;;;5066497;28;20055;-47
2021/05/20 08:15:33;;;;;;;2.50;0.70;;;;;;;;;;5069003;28;19920;-47
2021/05/20 08:18:00;;;;;;;1.88;0.70;;;;;;;;;;5066905;28;20072;-47
2021/05/20 08:20:27;;;;;;;0.70;0.70;;;;;;;;;;5060184;28;20048;-46
2021/05/20 08:22:54;;;;;;;1.60;0.70;;;;;;;;;;5067921;28;20045;-46
2021/05/20 08:25:21;;;;;;;0.70;0.70;;;;;;;;;;5064880;28;20064;-47
2021/05/20 08:27:48;;;;;;;0.70;0.70;;;;;;;;;;5069887;28;20048;-46
2021/05/20 08:30:15;;;;;;;1.05;0.70;;;;;;;;;;5065284;28;20045;-47
2021/05/20 08:32:42;;;;;;;0.70;0.70;;;;;;;;;;5068539;28;20029;-46
2021/05/20 08:35:09;;;;;;;0.70;0.70;;;;;;;;;;5065776;28;20037;-46
2021/05/20 08:37:38;;;;;;;1.23;0.70;;;;;;;;;;5059278;28;20037;-47
2021/05/20 08:40:06;;;;;;;0.60;0.60;;;;;;;;;;5056476;28;20405;-45
2021/05/20 08:42:33;;;;;;;0.63;0.63;;;;;;;;;;5065006;28;20052;-47
2021/05/20 08:45:20;;;;;;;0.60;0.60;;;;;;;;;;5068080;28;20127;-47
2021/05/20 08:47:47;;;;;;;0.60;0.60;;;;;;;;;;5065910;28;20029;-46
2021/05/20 08:50:15;;;;;;;0.60;0.60;;;;;;;;;;5063140;28;20040;-48
2021/05/20 08:52:42;;;;;;;0.73;0.60;;;;;;;;;;5051094;28;20056;-48
2021/05/20 08:55:11;;;;;;;1.42;0.60;;;;;;;;;;5066765;28;20037;-48
2021/05/20 08:57:38;;;;;;;0.60;0.60;;;;;;;;;;5067025;28;20491;-50
2021/05/20 09:00:06;;;;;;;1.77;0.70;;;;;;;;;;5069850;28;20041;-46
2021/05/20 09:02:33;;;;;;;0.60;0.60;;;;;;;;;;5063672;28;20060;-48
2021/05/20 09:05:02;;;;;;;0.80;0.60;;;;;;;;;;5058748;28;20404;-47
2021/05/20 09:07:35;;;;;;;0.60;0.60;;;;;;;;;;5058756;28;20041;-47
2021/05/20 09:10:10;;;;;;;1.75;0.60;;;;;;;;;;5060054;28;20056;-46
2021/05/20 09:12:39;;;;;;;0.50;0.50;;;;;;;;;;5069091;28;20127;-47
2021/05/20 09:15:12;;;;;;;1.40;0.60;;;;;;;;;;5070627;28;20094;-49
2021/05/20 09:17:39;;;;;;;0.60;0.60;;;;;;;;;;5067032;28;20051;-48
2021/05/20 09:20:06;;;;;;;0.60;0.60;;;;;;;;;;5068368;28;20523;-49
2021/05/20 09:22:35;;;;;;;0.60;0.60;;;;;;;;;;5069814;28;20068;-47
2021/05/20 09:25:02;;;;;;;0.70;0.70;;;;;;;;;;5054843;28;20052;-50
2021/05/20 09:27:37;;;;;;;2.03;0.60;;;;;;;;;;5061859;28;20075;-47
2021/05/20 09:30:18;;;;;;;0.60;0.60;;;;;;;;;;5061928;28;20033;-46
2021/05/20 09:32:47;;;;;;;3.63;0.60;;;;;;;;;;5066974;28;20436;-46
2021/05/20 09:35:15;;;;;;;0.60;0.60;;;;;;;;;;5065060;28;20087;-47
2021/05/20 09:37:50;;;;;;;0.77;0.70;;;;;;;;;;5058897;28;20423;-47
2021/05/20 09:40:19;;;;;;;0.70;0.70;;;;;;;;;;5063975;28;20048;-49
2021/05/20 09:42:47;;;;;;;0.60;0.60;;;;;;;;;;5065388;28;20091;-47
2021/05/20 09:45:15;;;;;;;1.98;0.70;;;;;;;;;;5068560;28;20037;-46
2021/05/20 09:47:43;;;;;;;0.85;0.60;;;;;;;;;;5066751;28;20805;-47
2021/05/20 09:50:11;;;;;;;4.38;0.60;;;;;;;;;;5061978;28;20025;-47
2021/05/20 09:52:38;;;;;;;0.60;0.60;;;;;;;;;;5054114;28;20550;-47
2021/05/20 09:55:25;;;;;;;0.60;0.60;;;;;;;;;;5064732;28;20032;-48
2021/05/20 09:57:55;;;;;;;0.82;0.70;;;;;;;;;;5058709;28;20563;-49
2021/05/20 10:00:24;;;;;;;1.85;0.60;;;;;;;;;;5067462;28;20471;-47
2021/05/20 10:03:04;;;;;;;0.63;0.63;;;;;;;;;;5069249;28;20051;-49
2021/05/20 10:05:33;;;;;;;0.60;0.60;;;;;;;;;;5072046;28;20040;-47
2021/05/20 10:08:01;;;;;;;1.70;0.60;;;;;;;;;;5065197;28;20049;-47
2021/05/20 10:10:33;;;;;;;0.93;0.82;;;;;;;;;;5055635;28;20037;-46
2021/05/20 10:13:01;;;;;;;1.27;0.60;;;;;;;;;;5066391;28;20028;-47
2021/05/20 10:15:29;;;;;;;1.20;0.60;;;;;;;;;;5062545;28;20040;-48
2021/05/20 10:17:56;;;;;;;2.50;0.60;;;;;;;;;;5063041;28;20498;-46
2021/05/20 10:20:24;;;;;;;0.50;0.50;;;;;;;;;;5064766;28;20041;-47
2021/05/20 10:22:50;;;;;;;3.20;0.60;;;;;;;;;;5056977;28;20055;-48
2021/05/20 10:25:23;;;;;;;0.60;0.60;;;;;;;;;;5056032;28;20481;-47
2021/05/20 10:27:51;;;;;;;1.65;0.60;;;;;;;;;;5063744;28;20044;-47
2021/05/20 10:30:18;;;;;;;0.95;0.50;;;;;;;;;;5068138;28;20044;-48
2021/05/20 10:32:45;;;;;;;1.02;0.50;;;;;;;;;;5062513;28;20079;-47
2021/05/20 10:35:15;;;;;;;0.50;0.50;;;;;;;;;;5062661;28;21599;-48
2021/05/20 10:37:43;;;;;;;0.57;0.57;;;;;;;;;;5057518;28;20059;-47
2021/05/20 10:40:26;;;;;;;0.50;0.50;;;;;;;;;;5062882;28;20625;-46
2021/05/20 10:43:02;;;;;;;1.27;0.52;;;;;;;;;;5055838;28;20044;-46
2021/05/20 10:45:29;;;;;;;5.72;1.60;;;;;;;;;;5061942;28;20075;-48
2021/05/20 10:48:02;;;;;;;0.60;0.60;;;;;;;;;;5064058;28;20047;-47
2021/05/20 10:50:47;;;;;;;0.60;0.60;;;;;;;;;;5050917;28;20041;-46
2021/05/20 10:53:30;;;;;;;0.80;0.50;;;;;;;;;;5066717;28;20121;-48
2021/05/20 10:55:56;;;;;;;0.50;0.50;;;;;;;;;;5059017;28;20044;-47
2021/05/20 10:58:30;;;;;;;2.63;0.60;;;;;;;;;;5064820;28;20074;-49
2021/05/20 11:00:57;;;;;;;0.60;0.60;;;;;;;;;;5058799;28;20389;-51
2021/05/20 11:03:42;;;;;;;0.65;0.63;;;;;;;;;;5056467;28;20037;-46
2021/05/20 11:06:08;;;;;;;1.55;0.60;;;;;;;;;;5070757;28;20036;-50
2021/05/20 11:08:35;;;;;;;3.30;0.70;;;;;;;;;;5062776;28;20044;-48
2021/05/20 11:11:02;;;;;;;0.70;0.70;;;;;;;;;;5055156;28;20458;-48
2021/05/20 11:13:38;;;;;;;0.73;0.60;;;;;;;;;;5070044;28;20044;-49
2021/05/20 11:16:14;;;;;;;0.95;0.70;;;;;;;;;;5066064;28;20045;-48
2021/05/20 11:18:41;;;;;;;1.35;0.70;;;;;;;;;;5060413;28;20592;-47
2021/05/20 11:21:07;;;;;;;1.40;0.70;;;;;;;;;;5064738;28;20090;-50
2021/05/20 11:23:36;;;;;;;0.73;0.73;;;;;;;;;;5057879;28;20060;-51
2021/05/20 11:26:07;;;;;;;4.05;0.80;;;;;;;;;;5069564;28;20045;-47
2021/05/20 11:28:42;;;;;;;2.28;0.80;;;;;;;;;;5065410;28;21651;-46
2021/05/20 11:31:09;;;;;;;1.83;0.90;;;;;;;;;;5055570;28;20040;-50
2021/05/20 11:33:47;;;;;;;1.00;1.00;;;;;;;;;;5068997;28;20074;-50
2021/05/20 11:36:14;;;;;;;0.90;0.90;;;;;;;;;;5061607;28;20116;-46
2021/05/20 11:38:54;;;;;;;1.95;0.90;;;;;;;;;;5054562;28;20099;-49
2021/05/20 11:41:21;;;;;;;1.77;0.90;;;;;;;;;;5066646;28;20044;-46
2021/05/20 11:43:59;;;;;;;0.80;0.80;;;;;;;;;;5065247;28;20071;-46
2021/05/20 11:46:26;;;;;;;3.80;0.90;;;;;;;;;;5053334;28;20045;-48
2021/05/20 11:49:18;;;;;;;1.58;0.82;;;;;;;;;;5064033;28;20067;-44
2021/05/20 11:51:46;;;;;;;2.60;0.90;;;;;;;;;;5055517;28;20036;-49
2021/05/20 11:54:15;;;;;;;1.35;0.80;;;;;;;;;;5069358;28;20098;-45
2021/05/20 11:56:44;;;;;;;1.20;0.80;;;;;;;;;;5067192;28;20067;-44
2021/05/20 11:59:11;;;;;;;5.50;0.90;;;;;;;;;;5068327;28;20032;-44
2021/05/20 12:01:41;;;;;;;0.90;0.90;;;;;;;;;;5068329;28;20036;-45
2021/05/20 12:04:07;;;;;;;3.50;0.80;;;;;;;;;;5061377;28;20048;-45
2021/05/20 12:06:35;;;;;;;1.52;0.90;;;;;;;;;;5058774;28;20044;-45
2021/05/20 12:09:06;;;;;;;0.90;0.90;;;;;;;;;;5063591;28;20068;-46
2021/05/20 12:11:33;;;;;;;3.22;0.80;;;;;;;;;;5066547;28;20417;-45
2021/05/20 12:14:00;;;;;;;0.98;0.98;;;;;;;;;;5070208;28;20054;-46
2021/05/20 12:16:31;;;;;;;0.90;0.90;;;;;;;;;;5066626;28;20040;-49
2021/05/20 12:19:02;;;;;;;0.95;0.95;;;;;;;;;;5052075;28;20041;-49
2021/05/20 12:21:28;;;;;;;1.42;0.90;;;;;;;;;;5066496;28;20093;-46
2021/05/20 12:23:59;;;;;;;1.55;0.90;;;;;;;;;;5065111;28;20048;-48
2021/05/20 12:26:30;;;;;;;0.90;0.90;;;;;;;;;;5068890;28;20036;-46
2021/05/20 12:28:56;;;;;;;1.65;0.90;;;;;;;;;;5063353;28;20048;-48
2021/05/20 12:31:23;;;;;;;2.25;1.85;;;;;;;;;;5053192;28;20044;-48
2021/05/20 12:33:50;;;;;;;0.98;0.98;;;;;;;;;;5066703;28;20053;-46
2021/05/20 12:36:27;;;;;;;1.05;0.90;;;;;;;;;;5066057;28;20052;-44
2021/05/20 12:38:54;;;;;;;1.95;0.82;;;;;;;;;;5056548;28;20060;-49
2021/05/20 12:41:21;;;;;;;4.55;0.90;;;;;;;;;;5066710;28;20048;-48
2021/05/20 12:43:48;;;;;;;0.90;0.90;;;;;;;;;;5067552;28;20052;-49
2021/05/20 12:46:17;;;;;;;0.90;0.90;;;;;;;;;;5063769;28;20041;-47
2021/05/20 12:48:58;;;;;;;0.90;0.90;;;;;;;;;;5060453;28;20691;-46
2021/05/20 12:51:25;;;;;;;2.35;0.90;;;;;;;;;;5061554;28;20041;-49
2021/05/20 12:53:54;;;;;;;0.88;0.88;;;;;;;;;;5069675;28;20090;-44
2021/05/20 12:56:20;;;;;;;0.90;0.90;;;;;;;;;;5070516;28;20089;-47
2021/05/20 12:58:55;;;;;;;2.13;0.98;;;;;;;;;;5058170;28;20436;-45
2021/05/20 13:01:23;;;;;;;6.65;1.00;;;;;;;;;;5062127;28;20043;-45
2021/05/20 13:03:51;;;;;;;1.02;0.90;;;;;;;;;;5054397;28;20641;-48
2021/05/20 13:06:23;;;;;;;3.53;0.90;;;;;;;;;;5065206;28;20076;-48
2021/05/20 13:08:51;;;;;;;1.48;0.90;;;;;;;;;;5064044;28;20485;-47
2021/05/20 13:11:20;;;;;;;1.58;0.93;;;;;;;;;;5073615;28;20033;-45
2021/05/20 13:13:49;;;;;;;0.98;0.98;;;;;;;;;;5070225;28;20028;-50
2021/05/20 13:24:48;;;;;;;2.05;1.00;;;;;;;;;;5060589;28;20036;-45
2021/05/20 13:27:16;;;;;;;3.13;1.98;;;;;;;;;;5071603;28;20492;-46
2021/05/20 13:29:46;;;;;;;1.05;1.00;;;;;;;;;;5064915;28;20051;-44
2021/05/20 13:32:18;;;;;;;1.48;0.90;;;;;;;;;;5054871;28;20916;-47
2021/05/20 13:34:45;;;;;;;1.58;0.95;;;;;;;;;;5072399;28;20472;-45
2021/05/20 13:37:14;;;;;;;0.90;0.90;;;;;;;;;;5063168;28;20033;-46
2021/05/20 13:39:41;;;;;;;1.55;0.80;;;;;;;;;;5055025;28;20052;-46
2021/05/20 13:42:08;;;;;;;0.90;0.90;;;;;;;;;;5069631;28;20481;-47
2021/05/20 13:44:43;;;;;;;0.90;0.90;;;;;;;;;;5064737;28;20041;-43
2021/05/20 13:47:10;;;;;;;0.90;0.90;;;;;;;;;;5057398;28;20132;-45
2021/05/20 13:49:41;;;;;;;1.00;1.00;;;;;;;;;;5062833;28;20466;-44
2021/05/20 13:52:08;;;;;;;0.80;0.80;;;;;;;;;;5063621;28;20064;-46
2021/05/20 13:54:35;;;;;;;0.90;0.90;;;;;;;;;;5064319;28;20037;-46
2021/05/20 13:57:02;;;;;;;0.80;0.80;;;;;;;;;;5058658;28;20055;-43
2021/05/20 13:59:30;;;;;;;0.90;0.90;;;;;;;;;;5071750;28;20425;-44
2021/05/20 14:01:58;;;;;;;2.28;0.80;;;;;;;;;;5067223;28;20503;-46
2021/05/20 14:04:35;;;;;;;1.50;1.00;;;;;;;;;;5066171;28;20048;-46
2021/05/20 14:07:02;;;;;;;0.70;0.70;;;;;;;;;;5061975;28;20440;-45
2021/05/20 14:09:28;;;;;;;2.15;0.88;;;;;;;;;;5061879;28;20052;-44
2021/05/20 14:11:55;;;;;;;0.93;0.93;;;;;;;;;;5072363;28;20064;-48
2021/05/20 14:14:22;;;;;;;0.80;0.80;;;;;;;;;;5068838;28;20044;-47
2021/05/20 14:16:49;;;;;;;0.68;0.68;;;;;;;;;;5068351;28;20056;-47
2021/05/20 14:19:16;;;;;;;0.70;0.70;;;;;;;;;;5063890;28;20040;-46
2021/05/20 14:22:04;;;;;;;0.65;0.65;;;;;;;;;;5065459;28;20056;-47
2021/05/20 14:24:31;;;;;;;0.60;0.60;;;;;;;;;;5069501;28;20040;-45
2021/05/20 14:26:57;;;;;;;0.73;0.73;;;;;;;;;;5068051;28;20078;-44
2021/05/20 14:29:24;;;;;;;0.98;0.70;;;;;;;;;;5066685;28;20078;-45
2021/05/20 14:31:51;;;;;;;3.30;0.70;;;;;;;;;;5071665;28;20037;-44
2021/05/20 14:34:18;;;;;;;0.90;0.75;;;;;;;;;;5066873;28;20043;-43
2021/05/20 14:36:45;;;;;;;0.80;0.80;;;;;;;;;;5060674;28;20037;-45
2021/05/20 14:39:12;;;;;;;0.88;0.70;;;;;;;;;;5066065;28;20086;-45
2021/05/20 14:41:42;;;;;;;0.70;0.70;;;;;;;;;;5063996;28;20048;-45
2021/05/20 14:44:09;;;;;;;0.70;0.70;;;;;;;;;;5071801;28;20037;-45
2021/05/20 14:46:36;;;;;;;1.00;1.00;;;;;;;;;;5067875;28;20114;-46
2021/05/20 14:49:03;;;;;;;1.20;0.70;;;;;;;;;;5069917;28;20060;-48
2021/05/20 14:51:35;;;;;;;0.63;0.63;;;;;;;;;;5061877;28;20063;-46
2021/05/20 14:54:13;;;;;;;0.70;0.70;;;;;;;;;;5067850;28;20025;-47
2021/05/20 15:07:33;;;;;;;0.60;0.60;;;;;;;;;;5067339;28;20055;-45
2021/05/20 15:12:35;;;;;;;0.60;0.60;;;;;;;;;;5054000;28;20033;-45
2021/05/20 15:15:14;;;;;;;;;;;;;;;;;;5062601;28;20098;-43
2021/05/20 15:17:51;;;;;;;1.65;0.63;;;;;;;;;;5057935;28;19932;-45
2021/05/20 15:20:18;;;;;;;0.70;0.70;;;;;;;;;;5064969;28;20052;-46
2021/05/20 15:22:51;;;;;;;1.75;0.63;;;;;;;;;;5065133;28;20048;-45